Portada
METAR-TAF:

METAR-TAF

Aeroports :

Aeroport d'Ouagadougou

Ouagadougou, Burkina Faso

latitud: 12-21N, longitud: 001-31W, altitud: 316 m

Observació

L'informe es va fer fa 2 hores i 19 minuts, a les 15:00 UTC
Vent 5 kt amb direcció variable
Temperatura 35°C
Humitat 9%
Pressió 1009 hPa
Visibilitat: 3500 m
Pols estès

METAR: DFFD 261500Z VRB05KT 3500 DU NSC 35/M02 Q1009 NOSIG

Hora: 17:19 (17:19 UTC)

Pronòstic

L'informe es va fer fa 6 hores i 19 minuts, a les 11:00 UTC
Pronòstic vàlid del 26 a les 12 UTC al 27 a les 18 UTC
Vent 10 kt del Nord-Est
Visibilitat: 3500 m
Pols estès
Evolucionant progressivament
l' 26 a les 21 UTC al 26 a les 23 UTC
Visibilitat: 6000 m
Evolucionant progressivament
l' 27 a les 04 UTC al 27 a les 06 UTC
Visibilitat: 2500 m
Pols estès

TAF: DFFD 261100Z 2612/2718 04010KT 3500 DU NSC BECMG 2621/2623 6000 NSW BECMG 2704/2706 2500 DU

Observacions i pronòstics meteorològics de més de 4000 aeroports (METAR i TAF).

Les estacions disponibles són els punts grocs i vermells al mapa.

Posi el ratolí al punt desitjat per veure el nom de l'estació.

Feu clic per veure les observacions i els pronòstics meteorològics.

Per canviar el mapa: feu clic els botons verds amb una creu de color negre per apropar; al botó verd amb un guió per allunyar la imatge; o en les fletxes verdes per a mapes adjacents.


METAR-TAF: